createdAt,value
2018-05-13T00:00:09.875Z,11.09
2018-05-13T00:02:38.133Z,11.11
2018-05-13T00:05:06.391Z,11.08
2018-05-13T00:07:34.668Z,11.25
2018-05-13T00:10:03.675Z,11.25
2018-05-13T00:12:31.934Z,11.05
2018-05-13T00:15:00.195Z,10.96
2018-05-13T00:17:28.462Z,10.86
2018-05-13T00:19:56.732Z,10.90
2018-05-13T00:22:24.986Z,10.75
2018-05-13T00:24:53.256Z,10.65
2018-05-13T00:27:22.271Z,10.82
2018-05-13T00:29:50.540Z,10.74
2018-05-13T00:32:18.793Z,10.63
2018-05-13T00:34:47.051Z,10.61
2018-05-13T00:37:15.302Z,10.51
2018-05-13T00:39:43.806Z,10.46
2018-05-13T00:42:12.062Z,10.41
2018-05-13T00:44:40.314Z,10.29
2018-05-13T00:47:09.356Z,10.26
2018-05-13T00:49:37.614Z,10.27
2018-05-13T00:52:05.854Z,10.25
2018-05-13T00:54:52.778Z,10.30
2018-05-13T00:57:21.790Z,10.13
2018-05-13T00:59:50.038Z,10.08
2018-05-13T01:02:19.063Z,10.05
2018-05-13T01:04:47.314Z,10.00
2018-05-13T01:07:15.566Z,9.92
2018-05-13T01:09:43.820Z,9.94
2018-05-13T01:12:12.075Z,9.90
2018-05-13T01:14:40.344Z,9.92
2018-05-13T01:17:09.355Z,9.95
2018-05-13T01:19:38.390Z,9.89
2018-05-13T01:22:06.645Z,9.85
2018-05-13T01:24:34.906Z,9.85
2018-05-13T01:27:03.912Z,9.84
2018-05-13T01:29:32.931Z,9.73
2018-05-13T01:32:01.698Z,9.68
2018-05-13T01:34:30.719Z,9.78
2018-05-13T01:36:58.958Z,9.70
2018-05-13T01:39:27.979Z,9.60
2018-05-13T01:41:56.228Z,9.54
2018-05-13T01:44:25.065Z,9.51
2018-05-13T01:46:53.311Z,9.53
2018-05-13T01:49:22.351Z,9.47
2018-05-13T01:51:50.601Z,9.39
2018-05-13T01:54:19.625Z,9.43
2018-05-13T01:56:47.874Z,9.38
2018-05-13T01:59:16.893Z,9.57
2018-05-13T02:01:45.137Z,9.44
2018-05-13T02:04:13.392Z,9.37
2018-05-13T02:06:41.775Z,9.35
2018-05-13T02:09:10.038Z,9.37
2018-05-13T02:11:38.277Z,9.32
2018-05-13T02:14:07.303Z,9.27
2018-05-13T02:16:36.227Z,9.21
2018-05-13T02:19:04.466Z,9.18
2018-05-13T02:21:32.719Z,9.20
2018-05-13T02:24:00.975Z,9.21
2018-05-13T02:26:29.224Z,9.17
2018-05-13T02:28:57.478Z,9.13
2018-05-13T02:31:26.499Z,9.14
2018-05-13T02:33:54.747Z,9.09
2018-05-13T02:36:23.769Z,9.11
2018-05-13T02:38:52.016Z,9.08
2018-05-13T02:41:20.277Z,8.99
2018-05-13T02:43:48.504Z,9.00
2018-05-13T02:46:16.766Z,9.01
2018-05-13T02:48:45.766Z,9.01
2018-05-13T02:51:14.791Z,8.93
2018-05-13T02:53:43.041Z,8.92
2018-05-13T02:56:12.071Z,8.92
2018-05-13T02:58:41.327Z,9.11
2018-05-13T03:01:09.583Z,9.10
2018-05-13T03:03:37.827Z,8.85
2018-05-13T03:06:06.067Z,8.81
2018-05-13T03:08:34.324Z,8.75
2018-05-13T03:11:02.595Z,8.76
2018-05-13T03:13:30.849Z,8.84
2018-05-13T03:15:59.086Z,8.67
2018-05-13T03:18:27.343Z,8.78
2018-05-13T03:20:55.596Z,8.57
2018-05-13T03:23:23.856Z,8.54
2018-05-13T03:25:52.868Z,8.46
2018-05-13T03:28:21.121Z,8.44
2018-05-13T03:30:50.142Z,8.61
2018-05-13T03:33:18.400Z,8.81
2018-05-13T03:35:47.421Z,8.81
2018-05-13T03:38:15.691Z,8.89
2018-05-13T03:40:45.956Z,8.92
2018-05-13T03:43:14.206Z,8.81
2018-05-13T03:45:42.461Z,8.75
2018-05-13T03:48:11.470Z,8.80
2018-05-13T03:50:40.499Z,8.67
2018-05-13T03:53:08.740Z,8.66
2018-05-13T03:55:37.770Z,8.71
2018-05-13T03:58:07.055Z,8.93
2018-05-13T04:00:36.075Z,9.09
2018-05-13T04:03:04.332Z,8.83
2018-05-13T04:05:33.363Z,8.81
2018-05-13T04:11:44.206Z,9.36
2018-05-13T04:14:30.273Z,9.11
2018-05-13T04:16:58.553Z,9.20
2018-05-13T04:19:26.803Z,9.57
2018-05-13T04:21:55.111Z,9.33
2018-05-13T04:24:23.366Z,9.57
2018-05-13T04:26:51.622Z,9.60
2018-05-13T04:29:19.867Z,9.58
2018-05-13T04:31:48.163Z,9.55
2018-05-13T04:34:16.408Z,9.69
2018-05-13T04:36:44.672Z,9.90
2018-05-13T04:39:12.914Z,10.03
2018-05-13T04:41:41.174Z,10.20
2018-05-13T04:44:09.474Z,10.39
2018-05-13T04:46:38.103Z,10.83
2018-05-13T04:49:06.353Z,10.76
2018-05-13T04:51:34.607Z,11.29
2018-05-13T04:54:02.880Z,11.39
2018-05-13T04:56:31.285Z,11.82
2018-05-13T04:58:59.539Z,11.93
2018-05-13T05:01:27.793Z,14.04
2018-05-13T05:03:56.062Z,18.08
2018-05-13T05:06:24.335Z,19.52
2018-05-13T05:08:52.668Z,19.86
2018-05-13T05:11:20.846Z,21.93
2018-05-13T05:13:49.121Z,24.51
2018-05-13T05:16:17.367Z,22.23
2018-05-13T05:18:45.632Z,24.05
2018-05-13T05:21:13.887Z,25.79
2018-05-13T05:23:42.152Z,24.54
2018-05-13T05:26:10.403Z,25.12
2018-05-13T05:28:39.431Z,25.65
2018-05-13T05:31:07.687Z,25.22
2018-05-13T05:33:36.728Z,25.60
2018-05-13T05:36:04.983Z,24.37
2018-05-13T05:38:33.295Z,23.33
2018-05-13T05:41:01.555Z,26.26
2018-05-13T05:43:29.910Z,23.63
2018-05-13T05:46:00.175Z,24.95
2018-05-13T05:48:28.456Z,24.39
2018-05-13T05:50:56.684Z,27.30
2018-05-13T05:53:25.723Z,28.38
2018-05-13T05:55:53.986Z,29.74
2018-05-13T05:58:22.252Z,31.60
2018-05-13T06:00:51.272Z,29.01
2018-05-13T06:03:19.545Z,30.19
2018-05-13T06:05:48.550Z,28.72
2018-05-13T06:08:16.807Z,28.96
2018-05-13T06:10:45.838Z,31.15
2018-05-13T06:13:14.106Z,30.36
2018-05-13T06:15:42.350Z,31.03
2018-05-13T06:18:11.163Z,30.81
2018-05-13T06:20:40.183Z,31.84
2018-05-13T06:23:08.447Z,29.64
2018-05-13T06:25:36.699Z,31.07
2018-05-13T06:28:05.732Z,28.26
2018-05-13T06:30:34.007Z,30.63
2018-05-13T06:33:02.283Z,31.09
2018-05-13T06:35:31.317Z,31.16
2018-05-13T06:37:59.563Z,31.11
2018-05-13T06:40:27.832Z,31.80
2018-05-13T06:42:56.892Z,31.41
2018-05-13T06:45:25.155Z,31.68
2018-05-13T06:47:53.410Z,31.66
2018-05-13T06:50:21.683Z,31.75
2018-05-13T06:52:49.936Z,32.01
2018-05-13T06:55:18.220Z,32.77
2018-05-13T06:57:46.528Z,32.16
2018-05-13T07:00:14.799Z,33.10
2018-05-13T07:02:43.871Z,31.49
2018-05-13T07:05:12.077Z,31.32
2018-05-13T07:07:41.102Z,31.90
2018-05-13T07:10:09.429Z,32.57
2018-05-13T07:12:37.680Z,31.38
2018-05-13T07:15:06.059Z,32.48
2018-05-13T07:17:34.324Z,32.03
2018-05-13T07:20:02.603Z,32.56
2018-05-13T07:22:30.868Z,32.05
2018-05-13T07:24:59.891Z,31.93
2018-05-13T07:27:29.703Z,31.98
2018-05-13T07:29:57.967Z,32.76
2018-05-13T07:32:26.214Z,32.45
2018-05-13T07:34:54.483Z,32.52
2018-05-13T07:37:22.815Z,33.44
2018-05-13T07:39:51.078Z,32.59
2018-05-13T07:42:20.105Z,32.78
2018-05-13T07:44:48.360Z,32.85
2018-05-13T07:47:17.383Z,33.27
2018-05-13T07:49:45.941Z,34.74
2018-05-13T07:52:14.739Z,33.66
2018-05-13T07:54:42.995Z,33.19
2018-05-13T07:57:11.266Z,32.38
2018-05-13T07:59:39.531Z,34.67
2018-05-13T08:02:07.791Z,33.25
2018-05-13T08:04:36.060Z,32.74
2018-05-13T08:07:04.307Z,32.86
2018-05-13T08:09:34.583Z,32.55
2018-05-13T08:12:02.878Z,33.30
2018-05-13T08:14:31.144Z,33.91
2018-05-13T08:16:59.418Z,35.86
2018-05-13T08:19:28.218Z,33.94
2018-05-13T08:21:56.478Z,33.76
2018-05-13T08:24:24.728Z,33.22
2018-05-13T08:26:53.766Z,33.55
2018-05-13T08:29:22.023Z,34.07
2018-05-13T08:31:50.295Z,32.76
2018-05-13T08:34:19.298Z,31.23
2018-05-13T08:36:47.571Z,32.30
2018-05-13T08:39:16.588Z,33.45
2018-05-13T08:41:44.847Z,36.33
2018-05-13T08:44:13.869Z,37.53
2018-05-13T08:46:42.134Z,33.24
2018-05-13T08:49:11.162Z,34.13
2018-05-13T08:51:39.647Z,33.66
2018-05-13T08:54:07.912Z,33.00
2018-05-13T08:56:36.172Z,33.05
2018-05-13T08:59:05.189Z,32.69
2018-05-13T09:01:33.456Z,32.53
2018-05-13T09:04:02.483Z,33.70
2018-05-13T09:06:30.759Z,33.39
2018-05-13T09:08:59.021Z,33.53
2018-05-13T09:11:27.283Z,33.63
2018-05-13T09:13:56.300Z,36.95
2018-05-13T09:16:24.564Z,39.03
2018-05-13T09:18:53.583Z,36.16
2018-05-13T09:21:21.851Z,37.42
2018-05-13T09:23:50.868Z,34.04
2018-05-13T09:26:19.127Z,33.52
2018-05-13T09:28:48.201Z,33.34
2018-05-13T09:31:16.464Z,33.02
2018-05-13T09:33:44.708Z,32.16
2018-05-13T09:36:12.971Z,31.05
2018-05-13T09:38:41.991Z,30.33
2018-05-13T09:41:10.254Z,30.33
2018-05-13T09:43:38.502Z,30.13
2018-05-13T09:46:06.777Z,32.32
2018-05-13T09:48:35.024Z,32.55
2018-05-13T09:51:03.307Z,28.99
2018-05-13T09:53:31.660Z,29.76
2018-05-13T09:55:59.943Z,31.81
2018-05-13T09:58:28.193Z,33.04
2018-05-13T10:00:57.228Z,33.07
2018-05-13T10:03:25.479Z,32.64
2018-05-13T10:05:54.594Z,33.27
2018-05-13T10:08:22.851Z,31.75
2018-05-13T10:10:51.106Z,31.66
2018-05-13T10:13:19.374Z,30.58
2018-05-13T10:15:47.639Z,31.12
2018-05-13T10:18:16.203Z,31.50
2018-05-13T10:20:44.457Z,32.34
2018-05-13T10:23:12.711Z,32.72
2018-05-13T10:25:42.191Z,32.49
2018-05-13T10:28:10.461Z,30.99
2018-05-13T10:30:38.707Z,31.38
2018-05-13T10:33:06.967Z,31.42
2018-05-13T10:35:35.224Z,31.65
2018-05-13T10:38:03.532Z,32.22
2018-05-13T10:40:31.787Z,30.82
2018-05-13T10:43:00.049Z,31.08
2018-05-13T10:45:28.296Z,33.11
2018-05-13T10:47:57.339Z,32.78
2018-05-13T10:50:25.587Z,33.74
2018-05-13T10:52:53.875Z,33.22
2018-05-13T10:55:22.152Z,32.50
2018-05-13T10:57:50.444Z,31.85
2018-05-13T11:00:19.451Z,32.24
2018-05-13T11:02:47.710Z,30.55
2018-05-13T11:05:16.735Z,30.16
2018-05-13T11:07:45.019Z,28.11
2018-05-13T11:10:13.278Z,26.45
2018-05-13T11:12:41.668Z,26.03
2018-05-13T11:15:09.923Z,28.40
2018-05-13T11:17:40.198Z,29.39
2018-05-13T11:20:08.455Z,30.10
2018-05-13T11:22:36.719Z,30.90
2018-05-13T11:25:04.966Z,32.03
2018-05-13T11:27:33.222Z,31.61
2018-05-13T11:30:01.484Z,32.06
2018-05-13T11:32:29.754Z,31.03
2018-05-13T11:34:57.999Z,30.89
2018-05-13T11:37:26.308Z,28.35
2018-05-13T11:39:55.343Z,27.72
2018-05-13T11:42:23.598Z,25.93
2018-05-13T11:44:51.858Z,25.23
2018-05-13T11:47:20.894Z,26.79
2018-05-13T11:49:49.151Z,28.17
2018-05-13T11:52:17.420Z,27.81
2018-05-13T11:54:45.686Z,30.74
2018-05-13T11:57:14.713Z,32.26
2018-05-13T11:59:42.971Z,36.16
2018-05-13T12:02:12.084Z,31.18
2018-05-13T12:04:40.259Z,32.13
2018-05-13T12:07:08.523Z,32.44
2018-05-13T12:09:37.571Z,31.30
2018-05-13T12:12:05.818Z,28.71
2018-05-13T12:14:34.091Z,29.72
2018-05-13T12:17:03.163Z,30.55
2018-05-13T12:19:31.429Z,28.39
2018-05-13T12:21:59.683Z,28.78
2018-05-13T12:24:27.996Z,28.00
2018-05-13T12:26:56.267Z,27.38
2018-05-13T12:29:24.537Z,26.57
2018-05-13T12:31:52.794Z,25.45
2018-05-13T12:34:21.074Z,25.08
2018-05-13T12:36:49.331Z,25.06
2018-05-13T12:39:18.364Z,24.97
2018-05-13T12:41:46.617Z,25.06
2018-05-13T12:44:14.891Z,25.10
2018-05-13T12:46:43.907Z,25.13
2018-05-13T12:49:12.174Z,24.80
2018-05-13T12:51:41.192Z,24.94
2018-05-13T12:54:09.442Z,24.58
2018-05-13T12:56:38.467Z,24.34
2018-05-13T12:59:06.727Z,24.49
2018-05-13T13:01:35.973Z,24.56
2018-05-13T13:04:04.255Z,24.82
2018-05-13T13:06:32.524Z,24.58
2018-05-13T13:09:00.783Z,24.71
2018-05-13T13:11:29.031Z,24.24
2018-05-13T13:13:57.295Z,24.17
2018-05-13T13:16:26.127Z,23.42
2018-05-13T13:18:54.468Z,23.08
2018-05-13T13:21:23.422Z,22.96
2018-05-13T13:23:51.688Z,22.84
2018-05-13T13:26:20.706Z,22.87
2018-05-13T13:28:48.974Z,22.76
2018-05-13T13:31:17.226Z,22.55
2018-05-13T13:33:45.487Z,22.49
2018-05-13T13:36:13.764Z,22.74
2018-05-13T13:38:42.114Z,22.69
2018-05-13T13:41:10.382Z,22.96
2018-05-13T13:43:38.641Z,22.99
2018-05-13T13:46:07.672Z,22.68
2018-05-13T13:48:35.929Z,22.48
2018-05-13T13:51:04.201Z,21.92
2018-05-13T13:53:33.315Z,22.16
2018-05-13T13:56:01.483Z,22.12
2018-05-13T13:58:29.781Z,22.22
2018-05-13T14:00:58.047Z,22.01
2018-05-13T14:03:26.305Z,21.68
2018-05-13T14:05:54.567Z,21.46
2018-05-13T14:08:22.839Z,21.38
2018-05-13T14:10:51.108Z,20.21
2018-05-13T14:13:19.362Z,19.84
2018-05-13T14:15:47.730Z,19.60
2018-05-13T14:18:16.751Z,19.79
2018-05-13T14:20:45.013Z,19.68
2018-05-13T14:23:13.286Z,20.25
2018-05-13T14:25:42.391Z,20.36
2018-05-13T14:28:11.411Z,20.25
2018-05-13T14:30:39.667Z,20.18
2018-05-13T14:33:08.771Z,19.34
2018-05-13T14:35:37.039Z,19.39
2018-05-13T14:38:06.115Z,19.45
2018-05-13T14:40:34.327Z,19.33
2018-05-13T14:43:03.137Z,19.34
2018-05-13T14:45:31.512Z,19.41
2018-05-13T14:47:59.655Z,19.32
2018-05-13T14:50:27.949Z,19.11
2018-05-13T14:52:56.199Z,19.11
2018-05-13T14:55:24.454Z,18.98
2018-05-13T14:57:52.715Z,19.13
2018-05-13T15:00:20.999Z,18.99
2018-05-13T15:02:49.251Z,18.49
2018-05-13T15:05:18.292Z,18.05
2018-05-13T15:07:46.539Z,18.62
2018-05-13T15:10:15.583Z,18.87
2018-05-13T15:12:43.843Z,18.93
2018-05-13T15:15:12.099Z,18.51
2018-05-13T15:17:41.116Z,18.68
2018-05-13T15:20:09.380Z,18.48
2018-05-13T15:22:37.693Z,18.67
2018-05-13T15:25:06.655Z,18.73
2018-05-13T15:27:35.684Z,18.86
2018-05-13T15:30:03.971Z,18.98
2018-05-13T15:32:32.223Z,19.10
2018-05-13T15:35:02.170Z,19.30
2018-05-13T15:37:30.445Z,19.31
2018-05-13T15:39:58.695Z,19.33
2018-05-13T15:42:27.809Z,19.33
2018-05-13T15:44:56.019Z,19.32
2018-05-13T15:47:24.355Z,19.27
2018-05-13T15:49:53.378Z,19.70
2018-05-13T15:52:21.640Z,19.00
2018-05-13T15:54:49.891Z,19.10
2018-05-13T15:57:18.166Z,19.35
2018-05-13T15:59:46.437Z,19.20
2018-05-13T16:02:14.699Z,19.29
2018-05-13T16:04:42.954Z,19.16
2018-05-13T16:07:11.515Z,19.01
2018-05-13T16:09:40.538Z,19.09
2018-05-13T16:12:08.829Z,19.10
2018-05-13T16:14:37.848Z,19.12
2018-05-13T16:17:06.115Z,19.30
2018-05-13T16:19:34.378Z,19.43
2018-05-13T16:22:02.643Z,19.36
2018-05-13T16:24:30.920Z,19.28
2018-05-13T16:26:59.959Z,19.06
2018-05-13T16:29:28.212Z,19.27
2018-05-13T16:31:56.475Z,19.34
2018-05-13T16:34:25.488Z,19.39
2018-05-13T16:36:53.756Z,19.33
2018-05-13T16:39:22.771Z,18.99
2018-05-13T16:41:51.040Z,18.84
2018-05-13T16:44:19.290Z,18.99
2018-05-13T16:46:47.564Z,19.37
2018-05-13T16:49:15.819Z,19.32
2018-05-13T16:51:44.086Z,19.33
2018-05-13T16:54:12.334Z,19.73
2018-05-13T16:56:42.602Z,19.68
2018-05-13T16:59:10.884Z,19.82
2018-05-13T17:01:39.126Z,20.00
2018-05-13T17:04:08.148Z,20.61
2018-05-13T17:06:36.410Z,20.54
2018-05-13T17:09:04.672Z,20.34
2018-05-13T17:11:33.692Z,20.32
2018-05-13T17:14:01.958Z,20.19
2018-05-13T17:16:30.983Z,19.94
2018-05-13T17:18:59.267Z,19.37
2018-05-13T17:21:27.535Z,19.15
2018-05-13T17:23:55.794Z,19.08
2018-05-13T17:26:24.812Z,19.04
2018-05-13T17:28:53.079Z,18.82
2018-05-13T17:31:22.092Z,18.84
2018-05-13T17:33:50.359Z,18.85
2018-05-13T17:36:18.615Z,18.62
2018-05-13T17:38:48.780Z,18.42
2018-05-13T17:41:17.134Z,18.54
2018-05-13T17:43:45.316Z,18.55
2018-05-13T17:46:14.331Z,18.40
2018-05-13T17:48:42.592Z,18.42
2018-05-13T17:51:11.616Z,18.35
2018-05-13T17:53:39.908Z,17.80
2018-05-13T17:56:08.147Z,17.72
2018-05-13T17:58:37.185Z,17.92
2018-05-13T18:01:05.437Z,17.73
2018-05-13T18:03:34.467Z,17.25
2018-05-13T18:06:02.732Z,16.94
2018-05-13T18:08:31.011Z,16.51
2018-05-13T18:10:59.272Z,16.57
2018-05-13T18:13:28.315Z,16.50
2018-05-13T18:15:56.572Z,16.47
2018-05-13T18:18:24.835Z,16.32
2018-05-13T18:20:53.105Z,16.26
2018-05-13T18:23:22.135Z,16.22
2018-05-13T18:25:50.400Z,16.19
2018-05-13T18:28:18.675Z,16.21
2018-05-13T18:30:46.939Z,16.28
2018-05-13T18:33:15.973Z,16.21
2018-05-13T18:35:44.239Z,16.20
2018-05-13T18:38:12.503Z,16.18
2018-05-13T18:40:41.526Z,16.20
2018-05-13T18:43:09.791Z,16.14
2018-05-13T18:45:38.047Z,16.11
2018-05-13T18:48:06.327Z,16.01
2018-05-13T18:50:34.613Z,15.96
2018-05-13T18:53:02.869Z,15.94
2018-05-13T18:55:31.144Z,15.92
2018-05-13T18:57:59.400Z,15.86
2018-05-13T19:00:27.671Z,15.83
2018-05-13T19:02:55.927Z,15.79
2018-05-13T19:05:24.973Z,15.72
2018-05-13T19:07:53.231Z,15.76
2018-05-13T19:10:21.483Z,15.79
2018-05-13T19:12:50.535Z,15.66
2018-05-13T19:15:18.789Z,15.91
2018-05-13T19:17:47.054Z,15.87
2018-05-13T19:20:15.334Z,15.70
2018-05-13T19:22:43.606Z,15.58
2018-05-13T19:25:12.638Z,15.47
2018-05-13T19:27:40.890Z,15.39
2018-05-13T19:30:09.922Z,15.28
2018-05-13T19:32:38.185Z,15.23
2018-05-13T19:35:06.762Z,15.16
2018-05-13T19:37:35.779Z,15.14
2018-05-13T19:40:04.036Z,15.11
2018-05-13T19:42:32.307Z,15.03
2018-05-13T19:45:01.338Z,15.02
2018-05-13T19:47:29.587Z,14.97
2018-05-13T19:49:58.614Z,14.96
2018-05-13T19:52:26.876Z,14.94
2018-05-13T19:54:55.157Z,14.95
2018-05-13T19:57:23.406Z,15.04
2018-05-13T19:59:51.688Z,15.39
2018-05-13T20:02:19.944Z,15.35
2018-05-13T20:04:48.215Z,15.49
2018-05-13T20:07:16.464Z,15.51
2018-05-13T20:09:44.802Z,15.31
2018-05-13T20:12:13.762Z,15.04
2018-05-13T20:14:42.318Z,14.96
2018-05-13T20:17:11.330Z,14.99
2018-05-13T20:19:39.604Z,15.02
2018-05-13T20:22:07.864Z,15.06
2018-05-13T20:24:36.892Z,14.97
2018-05-13T20:27:05.159Z,14.93
2018-05-13T20:29:34.183Z,14.91
2018-05-13T20:32:02.459Z,14.88
2018-05-13T20:34:30.736Z,14.82
2018-05-13T20:36:59.843Z,14.98
2018-05-13T20:39:28.116Z,14.87
2018-05-13T20:41:56.379Z,15.11
2018-05-13T20:44:24.682Z,14.89
2018-05-13T20:46:53.391Z,14.81
2018-05-13T20:49:21.645Z,14.92
2018-05-13T20:51:49.911Z,14.75
2018-05-13T20:54:18.292Z,14.81
2018-05-13T20:56:46.487Z,14.75
2018-05-13T20:59:14.736Z,14.93
2018-05-13T21:01:43.775Z,15.05
2018-05-13T21:04:12.036Z,15.15
2018-05-13T21:06:40.308Z,15.10
2018-05-13T21:09:09.338Z,15.03
2018-05-13T21:11:37.582Z,15.06
2018-05-13T21:14:06.611Z,15.12
2018-05-13T21:16:34.878Z,15.11
2018-05-13T21:19:03.171Z,15.01
2018-05-13T21:21:31.440Z,14.99
2018-05-13T21:23:59.699Z,14.92
2018-05-13T21:26:28.727Z,14.65
2018-05-13T21:28:56.987Z,14.60
2018-05-13T21:31:25.260Z,14.52
2018-05-13T21:33:54.287Z,14.56
2018-05-13T21:36:22.547Z,14.47
2018-05-13T21:38:51.868Z,14.41
2018-05-13T21:41:20.127Z,14.26
2018-05-13T21:43:49.143Z,14.25
2018-05-13T21:46:17.406Z,14.00
2018-05-13T21:48:45.666Z,13.84
2018-05-13T21:51:13.936Z,13.74
2018-05-13T21:53:42.198Z,13.65
2018-05-13T21:56:10.479Z,13.72
2018-05-13T21:58:38.736Z,13.83
2018-05-13T22:01:07.680Z,13.95
2018-05-13T22:03:36.091Z,13.89
2018-05-13T22:06:04.350Z,13.83
2018-05-13T22:08:32.600Z,13.85
2018-05-13T22:11:00.868Z,13.90
2018-05-13T22:13:29.125Z,13.93
2018-05-13T22:15:57.397Z,13.98
2018-05-13T22:18:25.652Z,13.99
2018-05-13T22:20:53.916Z,14.00
2018-05-13T22:23:22.188Z,14.05
2018-05-13T22:25:50.535Z,14.06
2018-05-13T22:28:18.719Z,14.10
2018-05-13T22:30:46.977Z,14.07
2018-05-13T22:33:15.246Z,14.08
2018-05-13T22:35:44.267Z,14.01
2018-05-13T22:38:12.530Z,13.90
2018-05-13T22:40:41.581Z,13.82
2018-05-13T22:43:09.835Z,13.69
2018-05-13T22:45:38.095Z,13.61
2018-05-13T22:48:06.350Z,13.56
2018-05-13T22:50:34.630Z,13.50
2018-05-13T22:53:02.923Z,13.40
2018-05-13T22:55:31.959Z,13.35
2018-05-13T22:58:00.239Z,13.27
2018-05-13T23:00:28.512Z,13.31
2018-05-13T23:02:56.774Z,13.44
2018-05-13T23:05:25.941Z,13.46
2018-05-13T23:07:54.076Z,13.49
2018-05-13T23:10:22.342Z,13.63
2018-05-13T23:12:50.615Z,13.66
2018-05-13T23:15:18.869Z,13.57
2018-05-13T23:17:47.131Z,13.34
2018-05-13T23:20:15.393Z,13.18
2018-05-13T23:22:43.667Z,13.30
2018-05-13T23:25:11.947Z,13.51
2018-05-13T23:27:40.207Z,13.40
2018-05-13T23:30:08.472Z,13.46
2018-05-13T23:32:37.503Z,13.26
2018-05-13T23:35:05.766Z,12.93
2018-05-13T23:37:34.136Z,12.74
2018-05-13T23:40:03.162Z,12.92
2018-05-13T23:42:31.524Z,12.85
2018-05-13T23:44:59.795Z,12.52
2018-05-13T23:47:28.822Z,12.36
2018-05-13T23:49:57.085Z,12.21
2018-05-13T23:52:25.367Z,12.09
2018-05-13T23:54:53.618Z,12.09
2018-05-13T23:57:21.887Z,12.35
2018-05-13T23:59:50.152Z,12.27
